Time;durP1;ratioP1;P1;durP2;ratioP2;P2;SDS_P1;SDS_P2;PMS_P1;PMS_P2;Temp;Humidity;BMP_temperature;BMP_pressure;BME280_temperature;BME280_humidity;BME280_pressure;Samples;Min_cycle;Max_cycle;Signal;HPM_P1;HPM_P2
2023/11/04 00:02:22;;;;;;;1.05;0.88;;;;;;;;;;10251357;28;20608;-75
2023/11/04 00:07:27;;;;;;;1.38;0.88;;;;;;;;;;10247745;28;20547;-75
2023/11/04 00:12:30;;;;;;;2.92;1.00;;;;;;;;;;10225931;28;20055;-74
2023/11/04 00:17:34;;;;;;;1.33;0.90;;;;;;;;;;10249287;28;20509;-75
2023/11/04 00:22:38;;;;;;;1.10;0.70;;;;;;;;;;10249432;28;20066;-75
2023/11/04 00:27:42;;;;;;;0.90;0.90;;;;;;;;;;10248954;28;20053;-75
2023/11/04 00:32:45;;;;;;;1.15;0.70;;;;;;;;;;10254417;28;20504;-75
2023/11/04 00:37:50;;;;;;;1.10;0.80;;;;;;;;;;10255423;28;20583;-75
2023/11/04 00:42:54;;;;;;;0.73;0.65;;;;;;;;;;10230715;28;20564;-75
2023/11/04 00:47:58;;;;;;;1.65;0.90;;;;;;;;;;10231767;28;20051;-75
2023/11/04 00:53:04;;;;;;;0.68;0.60;;;;;;;;;;10232278;29;20171;-74
2023/11/04 00:58:07;;;;;;;0.75;0.63;;;;;;;;;;10254340;28;20070;-75
2023/11/04 01:03:10;;;;;;;0.63;0.50;;;;;;;;;;10247435;28;20126;-75
2023/11/04 01:08:15;;;;;;;2.42;0.70;;;;;;;;;;10256124;28;20075;-75
2023/11/04 01:13:19;;;;;;;1.25;0.73;;;;;;;;;;10249359;28;20047;-75
2023/11/04 01:18:22;;;;;;;3.40;0.50;;;;;;;;;;10236000;28;20051;-75
2023/11/04 01:23:27;;;;;;;0.40;0.40;;;;;;;;;;10246612;29;20220;-75
2023/11/04 01:28:31;;;;;;;0.77;0.50;;;;;;;;;;10227158;28;20583;-75
2023/11/04 01:33:34;;;;;;;0.55;0.50;;;;;;;;;;10251887;28;20055;-75
2023/11/04 01:38:39;;;;;;;1.02;0.47;;;;;;;;;;10229220;28;20134;-75
2023/11/04 01:43:42;;;;;;;1.08;0.50;;;;;;;;;;10245890;28;20135;-75
2023/11/04 01:48:46;;;;;;;0.70;0.70;;;;;;;;;;10246687;28;20142;-75
2023/11/04 01:53:53;;;;;;;0.95;0.60;;;;;;;;;;10246227;28;20055;-75
2023/11/04 01:58:59;;;;;;;0.50;0.50;;;;;;;;;;10245757;28;20062;-75
2023/11/04 02:04:02;;;;;;;2.55;1.02;;;;;;;;;;10227841;28;20051;-75
2023/11/04 02:09:08;;;;;;;1.15;0.80;;;;;;;;;;10227998;28;20051;-75
2023/11/04 02:14:12;;;;;;;0.40;0.40;;;;;;;;;;10226550;28;20035;-75
2023/11/04 02:19:15;;;;;;;0.50;0.50;;;;;;;;;;10244269;28;20146;-75
2023/11/04 02:24:20;;;;;;;2.28;0.45;;;;;;;;;;10245787;28;20098;-75
2023/11/04 02:29:23;;;;;;;1.15;0.60;;;;;;;;;;10239559;28;20047;-74
2023/11/04 02:34:26;;;;;;;0.45;0.43;;;;;;;;;;10245360;28;20047;-75
2023/11/04 02:39:31;;;;;;;0.80;0.50;;;;;;;;;;10243759;28;20103;-75
2023/11/04 02:44:34;;;;;;;0.45;0.45;;;;;;;;;;10243150;28;20039;-75
2023/11/04 02:49:37;;;;;;;0.50;0.50;;;;;;;;;;10243518;28;20107;-75
2023/11/04 02:54:42;;;;;;;0.93;0.47;;;;;;;;;;10230316;28;20078;-74
2023/11/04 02:59:45;;;;;;;0.47;0.40;;;;;;;;;;10243163;28;20070;-75
2023/11/04 03:04:49;;;;;;;1.50;0.80;;;;;;;;;;10242373;28;20051;-75
2023/11/04 03:09:53;;;;;;;2.47;0.70;;;;;;;;;;10225673;28;20605;-74
2023/11/04 03:14:57;;;;;;;2.38;0.90;;;;;;;;;;10243929;28;20043;-74
2023/11/04 03:20:00;;;;;;;1.42;1.13;;;;;;;;;;10229791;28;20074;-75
2023/11/04 03:25:05;;;;;;;2.08;0.80;;;;;;;;;;10242826;28;20050;-75
2023/11/04 03:30:10;;;;;;;1.42;0.88;;;;;;;;;;10249868;28;20444;-75
2023/11/04 03:35:13;;;;;;;2.35;0.95;;;;;;;;;;10229449;29;20051;-74
2023/11/04 03:40:18;;;;;;;1.10;0.90;;;;;;;;;;10235016;28;20048;-75
2023/11/04 03:45:22;;;;;;;1.35;0.90;;;;;;;;;;10252139;28;20043;-75
2023/11/04 03:50:26;;;;;;;1.40;0.70;;;;;;;;;;10250618;28;20047;-75
2023/11/04 03:55:30;;;;;;;1.30;0.95;;;;;;;;;;10249479;28;20069;-75
2023/11/04 04:00:35;;;;;;;2.38;1.10;;;;;;;;;;10249473;28;20055;-75
2023/11/04 04:05:38;;;;;;;2.55;0.90;;;;;;;;;;10248917;28;20051;-74
2023/11/04 04:10:42;;;;;;;0.85;0.82;;;;;;;;;;10248439;28;20051;-74
2023/11/04 04:15:46;;;;;;;1.58;0.93;;;;;;;;;;10248801;28;20047;-74
2023/11/04 04:20:49;;;;;;;1.67;0.70;;;;;;;;;;10247396;28;20455;-75
2023/11/04 04:25:54;;;;;;;1.13;0.90;;;;;;;;;;10253928;28;20517;-74
2023/11/04 04:30:57;;;;;;;1.10;1.00;;;;;;;;;;10248266;28;20547;-75
2023/11/04 04:36:00;;;;;;;1.05;0.80;;;;;;;;;;10247010;28;20536;-75
2023/11/04 04:41:05;;;;;;;0.60;0.60;;;;;;;;;;10246832;28;20517;-74
2023/11/04 04:46:08;;;;;;;0.82;0.60;;;;;;;;;;10249451;28;20600;-75
2023/11/04 04:51:12;;;;;;;1.65;0.98;;;;;;;;;;10230369;28;20051;-75
2023/11/04 04:56:16;;;;;;;2.42;1.02;;;;;;;;;;10247213;28;20424;-74
2023/11/04 05:01:20;;;;;;;0.60;0.60;;;;;;;;;;10246489;28;20531;-75
2023/11/04 05:06:23;;;;;;;1.48;0.70;;;;;;;;;;10247223;28;20077;-75
2023/11/04 05:11:28;;;;;;;1.67;0.80;;;;;;;;;;10247002;28;20134;-74
2023/11/04 05:16:31;;;;;;;1.33;0.70;;;;;;;;;;10227100;28;20052;-74
2023/11/04 05:21:35;;;;;;;0.73;0.73;;;;;;;;;;10246904;28;20519;-74
2023/11/04 05:26:41;;;;;;;1.17;0.65;;;;;;;;;;10246195;28;20130;-74
2023/11/04 05:31:46;;;;;;;1.15;0.70;;;;;;;;;;10246311;28;20057;-75
2023/11/04 05:36:51;;;;;;;1.58;1.08;;;;;;;;;;10248483;28;20058;-75
2023/11/04 05:41:55;;;;;;;1.08;0.93;;;;;;;;;;10245837;29;20066;-74
2023/11/04 05:46:59;;;;;;;2.63;0.80;;;;;;;;;;10231190;28;20051;-75
2023/11/04 05:52:02;;;;;;;0.88;0.75;;;;;;;;;;10244261;28;20606;-74
2023/11/04 05:57:07;;;;;;;0.57;0.55;;;;;;;;;;10244927;29;20047;-74
2023/11/04 06:02:10;;;;;;;1.15;0.80;;;;;;;;;;10244503;29;20050;-74
2023/11/04 06:07:13;;;;;;;0.77;0.50;;;;;;;;;;10244492;29;20085;-74
2023/11/04 06:12:18;;;;;;;1.77;0.80;;;;;;;;;;10244814;29;20054;-74
2023/11/04 06:17:21;;;;;;;1.77;1.05;;;;;;;;;;10244840;28;20053;-75
2023/11/04 06:22:25;;;;;;;0.77;0.73;;;;;;;;;;10244614;29;20056;-74
2023/11/04 06:27:30;;;;;;;0.82;0.60;;;;;;;;;;10243835;28;20047;-74
2023/11/04 06:32:33;;;;;;;1.13;0.83;;;;;;;;;;10244367;29;20061;-74
2023/11/04 06:37:38;;;;;;;0.80;0.57;;;;;;;;;;10243654;28;20047;-74
2023/11/04 06:42:43;;;;;;;1.75;1.05;;;;;;;;;;10244015;28;20049;-75
2023/11/04 06:47:46;;;;;;;0.90;0.70;;;;;;;;;;10243758;28;20063;-75
2023/11/04 06:52:50;;;;;;;0.40;0.40;;;;;;;;;;10243952;28;20524;-75
2023/11/04 06:57:55;;;;;;;1.48;0.60;;;;;;;;;;10243413;28;20051;-75
2023/11/04 07:02:59;;;;;;;1.90;0.73;;;;;;;;;;10248709;28;20134;-75
2023/11/04 07:08:02;;;;;;;0.77;0.70;;;;;;;;;;10243182;28;20097;-74
2023/11/04 07:13:10;;;;;;;1.02;0.70;;;;;;;;;;10243085;28;20421;-75
2023/11/04 07:18:15;;;;;;;1.10;0.70;;;;;;;;;;10239426;28;20047;-75
2023/11/04 07:23:18;;;;;;;1.30;0.80;;;;;;;;;;10248203;28;20043;-75
2023/11/04 07:28:23;;;;;;;0.80;0.80;;;;;;;;;;10243229;28;20724;-75
2023/11/04 07:33:26;;;;;;;0.77;0.60;;;;;;;;;;10243039;28;20486;-75
2023/11/04 07:38:30;;;;;;;0.80;0.60;;;;;;;;;;10227506;28;22002;-75
2023/11/04 07:43:35;;;;;;;1.10;1.00;;;;;;;;;;10241050;28;20051;-75
2023/11/04 07:48:38;;;;;;;1.75;0.77;;;;;;;;;;10285773;23;20053;-74
2023/11/04 07:53:42;;;;;;;0.90;0.60;;;;;;;;;;10241860;28;20676;-74
2023/11/04 07:58:47;;;;;;;1.92;0.85;;;;;;;;;;10242068;28;20063;-74
2023/11/04 08:03:50;;;;;;;1.42;0.70;;;;;;;;;;10240720;28;20043;-74
2023/11/04 08:08:53;;;;;;;0.93;0.85;;;;;;;;;;10242871;28;20102;-73
2023/11/04 08:13:58;;;;;;;4.30;1.00;;;;;;;;;;10244994;28;20046;-73
2023/11/04 08:25:06;;;;;;;0.88;0.70;;;;;;;;;;8597965;26;20414;-73
2023/11/04 08:30:47;;;;;;;1.50;0.82;;;;;;;;;;10238378;28;20115;-73
2023/11/04 08:35:59;;;;;;;2.08;0.80;;;;;;;;;;10247975;28;20057;-74
2023/11/04 08:41:02;;;;;;;1.63;0.90;;;;;;;;;;10247156;28;20134;-73
2023/11/04 08:46:07;;;;;;;1.55;0.70;;;;;;;;;;10247535;28;20130;-73
2023/11/04 08:51:11;;;;;;;0.82;0.82;;;;;;;;;;10247627;28;20047;-73
2023/11/04 09:08:50;;;;;;;0.77;0.63;;;;;;;;;;10181329;29;20044;-73
2023/11/04 09:14:00;;;;;;;1.67;0.90;;;;;;;;;;10185318;29;20071;-73
2023/11/04 09:19:53;;;;;;;1.85;0.82;;;;;;;;;;10181858;29;20067;-73
2023/11/04 09:25:16;;;;;;;4.32;0.95;;;;;;;;;;10179145;29;20040;-73
2023/11/04 09:30:31;;;;;;;2.38;0.77;;;;;;;;;;10188790;29;20047;-73
2023/11/04 09:36:05;;;;;;;2.35;0.75;;;;;;;;;;10182550;29;20059;-73
2023/11/04 09:41:11;;;;;;;1.02;0.80;;;;;;;;;;10174662;29;20410;-74
2023/11/04 09:46:14;;;;;;;1.63;0.60;;;;;;;;;;10191237;29;20132;-73
2023/11/04 09:51:22;;;;;;;3.10;1.13;;;;;;;;;;10194759;29;20048;-73
2023/11/04 10:09:48;;;;;;;1.15;0.65;;;;;;;;;;9959114;29;20073;-73
2023/11/04 10:14:54;;;;;;;1.23;0.60;;;;;;;;;;10109686;29;20491;-73
2023/11/04 10:20:41;;;;;;;1.98;1.17;;;;;;;;;;10270114;23;20059;-73
2023/11/04 10:25:46;;;;;;;2.55;1.40;;;;;;;;;;10283499;28;20129;-73
2023/11/04 10:31:44;;;;;;;1.88;0.90;;;;;;;;;;10430780;23;20142;-73
2023/11/04 10:37:55;;;;;;;0.60;0.60;;;;;;;;;;10144337;23;20322;-73
2023/11/04 10:48:53;;;;;;;2.28;0.90;;;;;;;;;;10236881;28;20405;-73
2023/11/04 10:54:06;;;;;;;3.30;0.70;;;;;;;;;;10242228;29;20063;-73
2023/11/04 10:59:20;;;;;;;1.27;0.57;;;;;;;;;;10241517;28;20074;-73
2023/11/04 11:04:25;;;;;;;1.20;0.60;;;;;;;;;;10244248;28;20054;-73
2023/11/04 11:09:28;;;;;;;3.78;1.15;;;;;;;;;;10224785;29;20086;-73
2023/11/04 11:14:34;;;;;;;1.30;0.95;;;;;;;;;;10241892;28;20043;-73
2023/11/04 11:19:59;;;;;;;1.33;0.87;;;;;;;;;;10471460;23;20051;-73
2023/11/04 11:31:58;;;;;;;1.48;0.95;;;;;;;;;;10158826;29;20130;-73
2023/11/04 11:37:13;;;;;;;1.95;0.90;;;;;;;;;;10159861;29;20043;-73
2023/11/04 11:42:16;;;;;;;3.47;0.90;;;;;;;;;;10164533;29;20071;-74
2023/11/04 11:47:21;;;;;;;4.50;0.85;;;;;;;;;;10168392;29;20059;-74
2023/11/04 11:52:24;;;;;;;1.80;0.98;;;;;;;;;;10172409;29;20186;-74
2023/11/04 12:31:39;;;;;;;1.45;0.65;;;;;;;;;;10183991;29;20052;-74
2023/11/04 12:44:01;;;;;;;0.73;0.60;;;;;;;;;;10507936;23;20056;-75
2023/11/04 13:01:50;;;;;;;0.93;0.60;;;;;;;;;;11192345;23;20059;-85
2023/11/04 13:06:56;;;;;;;1.85;0.65;;;;;;;;;;10189806;29;20066;-85
2023/11/04 13:12:00;;;;;;;2.65;1.48;;;;;;;;;;10212633;29;20050;-85
2023/11/04 13:17:19;;;;;;;5.55;2.15;;;;;;;;;;10199633;29;20047;-84
2023/11/04 13:22:23;;;;;;;4.57;2.22;;;;;;;;;;10215568;29;20112;-85
2023/11/04 13:27:27;;;;;;;1.35;1.05;;;;;;;;;;10211545;29;20762;-88
2023/11/04 13:32:33;;;;;;;0.55;0.52;;;;;;;;;;10214128;29;20673;-87
2023/11/04 13:37:37;;;;;;;2.50;0.80;;;;;;;;;;10211474;29;20079;-88
2023/11/04 13:42:41;;;;;;;1.50;0.65;;;;;;;;;;10221206;29;20079;-87
2023/11/04 13:47:46;;;;;;;1.58;0.80;;;;;;;;;;10178671;23;20048;-76
2023/11/04 13:52:49;;;;;;;0.60;0.60;;;;;;;;;;10166373;29;20043;-76
2023/11/04 13:57:52;;;;;;;2.72;0.70;;;;;;;;;;10150050;29;20071;-77
2023/11/04 14:02:57;;;;;;;1.88;0.90;;;;;;;;;;10170768;29;20567;-77
2023/11/04 14:08:01;;;;;;;0.85;0.70;;;;;;;;;;10162082;29;20063;-77
2023/11/04 14:13:04;;;;;;;1.25;0.60;;;;;;;;;;10161397;29;20051;-76
2023/11/04 14:18:09;;;;;;;0.80;0.55;;;;;;;;;;10163256;29;20131;-77
2023/11/04 14:23:12;;;;;;;1.50;1.00;;;;;;;;;;10165487;29;20048;-76
2023/11/04 14:28:16;;;;;;;0.90;0.75;;;;;;;;;;10154628;29;20148;-76
2023/11/04 14:33:21;;;;;;;1.98;0.60;;;;;;;;;;10153484;29;20063;-77
2023/11/04 14:38:24;;;;;;;0.70;0.70;;;;;;;;;;10143842;29;20047;-77
2023/11/04 14:43:28;;;;;;;1.38;0.60;;;;;;;;;;10165058;29;20058;-76
2023/11/04 14:48:32;;;;;;;0.73;0.60;;;;;;;;;;10164875;29;20041;-77
2023/11/04 14:53:36;;;;;;;0.65;0.57;;;;;;;;;;10145848;29;20051;-77
2023/11/04 14:58:39;;;;;;;0.68;0.57;;;;;;;;;;10156203;29;20048;-77
2023/11/04 15:03:44;;;;;;;0.40;0.40;;;;;;;;;;10132667;29;20063;-76
2023/11/04 15:08:47;;;;;;;1.63;0.80;;;;;;;;;;10146283;29;20059;-76
2023/11/04 15:13:52;;;;;;;1.33;1.13;;;;;;;;;;10155195;29;20075;-76
2023/11/04 15:18:56;;;;;;;1.67;0.80;;;;;;;;;;10157846;29;20048;-76
2023/11/04 15:24:00;;;;;;;0.88;0.80;;;;;;;;;;10155668;29;20135;-77
2023/11/04 15:29:03;;;;;;;0.70;0.70;;;;;;;;;;10135307;29;20127;-76
2023/11/04 15:34:08;;;;;;;0.70;0.70;;;;;;;;;;10159660;29;20055;-76
2023/11/04 15:39:11;;;;;;;0.85;0.63;;;;;;;;;;10166879;29;20700;-76
2023/11/04 15:44:16;;;;;;;0.93;0.70;;;;;;;;;;10171461;29;20581;-77
2023/11/04 15:49:21;;;;;;;0.70;0.70;;;;;;;;;;10172361;29;20135;-76
2023/11/04 15:54:24;;;;;;;1.17;0.82;;;;;;;;;;10150698;29;20050;-76
2023/11/04 15:59:29;;;;;;;1.17;1.00;;;;;;;;;;10165817;29;20103;-76
2023/11/04 16:04:33;;;;;;;1.85;0.70;;;;;;;;;;10160848;29;20515;-76
2023/11/04 16:09:37;;;;;;;1.27;0.70;;;;;;;;;;10157001;29;20140;-76
2023/11/04 16:14:42;;;;;;;1.90;0.95;;;;;;;;;;10165497;29;20139;-76
2023/11/04 16:19:47;;;;;;;2.10;1.40;;;;;;;;;;10160237;29;20077;-76
2023/11/04 16:24:50;;;;;;;7.45;2.90;;;;;;;;;;10170109;29;20410;-76
2023/11/04 16:29:53;;;;;;;5.03;2.38;;;;;;;;;;10168692;29;20048;-76
2023/11/04 16:34:59;;;;;;;3.00;1.50;;;;;;;;;;10164822;29;20078;-76
2023/11/04 16:40:03;;;;;;;1.10;0.70;;;;;;;;;;10157279;29;20064;-76
2023/11/04 16:45:09;;;;;;;0.65;0.63;;;;;;;;;;10163164;29;20052;-76
2023/11/04 16:50:15;;;;;;;0.80;0.80;;;;;;;;;;10160801;29;20052;-76
2023/11/04 16:55:18;;;;;;;1.00;0.77;;;;;;;;;;10165645;29;20048;-76
2023/11/04 17:00:21;;;;;;;0.70;0.52;;;;;;;;;;10163473;29;20064;-76
2023/11/04 17:05:26;;;;;;;1.50;0.80;;;;;;;;;;10153609;29;20052;-76
2023/11/04 17:10:30;;;;;;;1.00;0.80;;;;;;;;;;10153535;29;20447;-76
2023/11/04 17:15:33;;;;;;;1.05;0.70;;;;;;;;;;10148070;29;20410;-76
2023/11/04 17:20:38;;;;;;;0.80;0.65;;;;;;;;;;10167712;29;20491;-76
2023/11/04 17:25:42;;;;;;;1.65;0.80;;;;;;;;;;10153742;29;20048;-76
2023/11/04 17:30:46;;;;;;;1.38;0.90;;;;;;;;;;10160737;29;20522;-76
2023/11/04 17:35:50;;;;;;;1.40;1.08;;;;;;;;;;10146416;29;20510;-76
2023/11/04 17:40:54;;;;;;;0.98;0.88;;;;;;;;;;10153114;29;20049;-77
2023/11/04 17:45:57;;;;;;;1.00;0.90;;;;;;;;;;10161034;29;20058;-76
2023/11/04 17:51:02;;;;;;;0.65;0.65;;;;;;;;;;10157837;29;20071;-76
2023/11/04 17:56:06;;;;;;;0.98;0.70;;;;;;;;;;10171588;29;20410;-76
2023/11/04 18:01:09;;;;;;;0.50;0.50;;;;;;;;;;10167117;29;20058;-76
2023/11/04 18:06:14;;;;;;;1.17;0.63;;;;;;;;;;10151540;29;20055;-76
2023/11/04 18:11:17;;;;;;;1.88;1.40;;;;;;;;;;10165286;29;20143;-76
2023/11/04 18:16:21;;;;;;;1.20;0.70;;;;;;;;;;10163797;29;20050;-75
2023/11/04 18:21:25;;;;;;;0.98;0.80;;;;;;;;;;10168974;29;20131;-76
2023/11/04 18:26:29;;;;;;;2.00;1.25;;;;;;;;;;10164623;29;20058;-76
2023/11/04 18:31:34;;;;;;;1.70;1.50;;;;;;;;;;10169253;29;20055;-76
2023/11/04 18:36:39;;;;;;;2.72;1.50;;;;;;;;;;10141975;29;20064;-76
2023/11/04 18:41:42;;;;;;;1.05;0.90;;;;;;;;;;10168312;29;20883;-76
2023/11/04 18:46:45;;;;;;;1.77;0.90;;;;;;;;;;10158609;29;20052;-76
2023/11/04 18:51:50;;;;;;;1.20;0.60;;;;;;;;;;10160383;29;20056;-76
2023/11/04 18:56:54;;;;;;;1.95;1.15;;;;;;;;;;10164700;29;20054;-75
2023/11/04 19:01:57;;;;;;;0.70;0.70;;;;;;;;;;10163714;29;21489;-76
2023/11/04 19:07:04;;;;;;;1.30;0.90;;;;;;;;;;10158738;29;20040;-76
2023/11/04 19:12:07;;;;;;;;;;;;;;;;;;10157850;29;20046;-76
2023/11/04 19:17:11;;;;;;;0.60;0.43;;;;;;;;;;10160354;29;20448;-76
2023/11/04 19:22:15;;;;;;;0.40;0.40;;;;;;;;;;10149232;29;20052;-75
2023/11/04 19:27:19;;;;;;;0.55;0.40;;;;;;;;;;10157969;29;20055;-76
2023/11/04 19:32:22;;;;;;;0.40;0.40;;;;;;;;;;10156859;29;20094;-76
2023/11/04 19:37:27;;;;;;;1.13;0.70;;;;;;;;;;10157050;29;20279;-76
2023/11/04 19:42:30;;;;;;;0.45;0.40;;;;;;;;;;10139640;29;20047;-76
2023/11/04 19:47:33;;;;;;;0.75;0.45;;;;;;;;;;10234582;23;20525;-76
2023/11/04 19:52:39;;;;;;;1.27;0.50;;;;;;;;;;10270535;28;20424;-76
2023/11/04 19:57:42;;;;;;;0.75;0.50;;;;;;;;;;10254585;28;20047;-76
2023/11/04 20:02:46;;;;;;;1.88;0.55;;;;;;;;;;10252353;28;20074;-76
2023/11/04 20:07:52;;;;;;;2.20;0.70;;;;;;;;;;10256017;28;20043;-76
2023/11/04 20:12:56;;;;;;;1.05;0.60;;;;;;;;;;10272978;28;20106;-77
2023/11/04 20:18:01;;;;;;;1.15;0.68;;;;;;;;;;10230421;28;20056;-76
2023/11/04 20:23:06;;;;;;;1.42;0.70;;;;;;;;;;10269492;28;20046;-76
2023/11/04 20:28:11;;;;;;;2.30;0.40;;;;;;;;;;10263853;28;20052;-76
2023/11/04 20:33:14;;;;;;;0.70;0.47;;;;;;;;;;10258963;28;20053;-76
2023/11/04 20:38:19;;;;;;;1.60;0.80;;;;;;;;;;10273971;28;20046;-76
2023/11/04 20:43:23;;;;;;;0.90;0.40;;;;;;;;;;10274036;28;20053;-76
2023/11/04 20:48:26;;;;;;;0.70;0.40;;;;;;;;;;10269999;28;20366;-76
2023/11/04 20:53:31;;;;;;;1.92;0.50;;;;;;;;;;10268125;28;20046;-76
2023/11/04 20:58:35;;;;;;;1.58;0.40;;;;;;;;;;10250338;28;20128;-76
2023/11/04 21:03:38;;;;;;;0.77;0.40;;;;;;;;;;10247750;28;20055;-76
2023/11/04 21:08:43;;;;;;;1.48;0.40;;;;;;;;;;10256100;28;20149;-76
2023/11/04 21:13:47;;;;;;;1.13;0.52;;;;;;;;;;10277848;28;20058;-76
2023/11/04 21:18:50;;;;;;;0.60;0.43;;;;;;;;;;10252610;28;20141;-76
2023/11/04 21:23:55;;;;;;;1.48;0.60;;;;;;;;;;10258417;28;20059;-76
2023/11/04 21:28:59;;;;;;;0.50;0.40;;;;;;;;;;10252891;28;20055;-76
2023/11/04 21:34:02;;;;;;;0.55;0.50;;;;;;;;;;10273852;28;20567;-77
2023/11/04 21:39:07;;;;;;;0.93;0.50;;;;;;;;;;10246203;28;20110;-76
2023/11/04 21:44:10;;;;;;;1.00;0.60;;;;;;;;;;10264701;28;20733;-76
2023/11/04 21:49:14;;;;;;;1.85;0.40;;;;;;;;;;10248436;28;20047;-76
2023/11/04 21:54:19;;;;;;;1.00;0.55;;;;;;;;;;10284462;28;20050;-76
2023/11/04 21:59:23;;;;;;;0.77;0.40;;;;;;;;;;10257627;28;20105;-76
2023/11/04 22:04:26;;;;;;;1.08;0.38;;;;;;;;;;10264069;28;20047;-76
2023/11/04 22:09:31;;;;;;;1.55;0.80;;;;;;;;;;10265357;28;20057;-76
2023/11/04 22:14:35;;;;;;;2.88;1.10;;;;;;;;;;10258497;28;20110;-76
2023/11/04 22:19:38;;;;;;;2.88;0.55;;;;;;;;;;10245309;28;20048;-76
2023/11/04 22:24:43;;;;;;;1.13;0.50;;;;;;;;;;10249403;28;20146;-76
2023/11/04 22:29:46;;;;;;;0.45;0.43;;;;;;;;;;10238804;28;20059;-76
2023/11/04 22:34:50;;;;;;;1.88;0.52;;;;;;;;;;10235880;28;20055;-73
2023/11/04 22:39:55;;;;;;;2.90;0.90;;;;;;;;;;10249253;28;20058;-74
2023/11/04 22:44:58;;;;;;;1.98;0.82;;;;;;;;;;10268672;28;20493;-74
2023/11/04 22:50:02;;;;;;;2.67;0.70;;;;;;;;;;10240091;28;20083;-73
2023/11/04 22:55:08;;;;;;;3.78;0.93;;;;;;;;;;10236018;28;20051;-73
2023/11/04 23:00:27;;;;;;;2.40;0.57;;;;;;;;;;10240957;28;20508;-74
2023/11/04 23:05:32;;;;;;;1.92;0.60;;;;;;;;;;10241782;28;20047;-73
2023/11/04 23:10:36;;;;;;;3.42;0.82;;;;;;;;;;10242260;28;20059;-73
2023/11/04 23:15:40;;;;;;;2.78;0.80;;;;;;;;;;10223325;28;20479;-73
2023/11/04 23:20:44;;;;;;;3.38;1.50;;;;;;;;;;10241353;28;20123;-73
2023/11/04 23:25:48;;;;;;;1.92;0.60;;;;;;;;;;10235886;28;20639;-73
2023/11/04 23:30:51;;;;;;;4.88;1.63;;;;;;;;;;10259040;28;20105;-73
2023/11/04 23:35:55;;;;;;;2.10;1.08;;;;;;;;;;10249851;28;20063;-73
2023/11/04 23:40:59;;;;;;;5.35;1.25;;;;;;;;;;10237166;28;20051;-74
2023/11/04 23:46:03;;;;;;;2.17;0.75;;;;;;;;;;10263429;28;20501;-73
2023/11/04 23:51:06;;;;;;;3.35;0.88;;;;;;;;;;10263876;28;20055;-74
2023/11/04 23:56:12;;;;;;;3.08;0.90;;;;;;;;;;10256570;28;20055;-74
